createdAt,value
2023-02-24T00:00:53.187Z,5.30
2023-02-24T00:04:00.383Z,8.03
2023-02-24T00:07:04.232Z,5.60
2023-02-24T00:10:12.202Z,5.47
2023-02-24T00:13:22.328Z,8.63
2023-02-24T00:16:27.387Z,6.97
2023-02-24T00:19:34.028Z,8.37
2023-02-24T00:22:37.619Z,7.23
2023-02-24T00:25:41.075Z,6.17
2023-02-24T00:28:46.064Z,7.10
2023-02-24T00:32:00.356Z,4.33
2023-02-24T00:35:04.385Z,7.23
2023-02-24T00:38:07.811Z,10.80
2023-02-24T00:41:14.410Z,9.00
2023-02-24T00:44:19.247Z,6.67
2023-02-24T00:47:23.705Z,7.63
2023-02-24T00:50:27.496Z,7.20
2023-02-24T00:53:31.072Z,9.83
2023-02-24T00:56:35.288Z,8.33
2023-02-24T00:59:40.656Z,9.83
2023-02-24T01:02:46.386Z,4.80
2023-02-24T01:05:50.658Z,5.63
2023-02-24T01:08:56.249Z,9.30
2023-02-24T01:12:17.251Z,7.50
2023-02-24T01:15:24.146Z,2.17
2023-02-24T01:18:27.610Z,8.33
2023-02-24T01:21:31.557Z,7.20
2023-02-24T01:24:39.146Z,7.47
2023-02-24T01:27:42.732Z,7.03
2023-02-24T01:30:47.689Z,6.00
2023-02-24T01:33:52.150Z,6.27
2023-02-24T01:36:55.922Z,6.57
2023-02-24T01:39:59.419Z,4.00
2023-02-24T01:43:08.674Z,7.77
2023-02-24T01:46:13.790Z,5.43
2023-02-24T01:49:22.305Z,7.13
2023-02-24T01:52:31.532Z,7.07
2023-02-24T01:55:41.633Z,7.03
2023-02-24T01:58:45.443Z,2.63
2023-02-24T02:01:53.472Z,4.73
2023-02-24T02:05:03.848Z,9.77
2023-02-24T02:08:09.836Z,8.67
2023-02-24T02:11:22.774Z,4.63
2023-02-24T02:14:32.247Z,3.33
2023-02-24T02:17:51.337Z,6.83
2023-02-24T02:21:56.412Z,6.50
2023-02-24T02:25:10.635Z,5.07
2023-02-24T02:28:58.701Z,8.07
2023-02-24T02:32:52.357Z,6.40
2023-02-24T02:36:07.318Z,6.00
2023-02-24T02:39:27.095Z,5.63
2023-02-24T02:42:43.510Z,7.33
2023-02-24T02:45:58.154Z,6.20
2023-02-24T02:49:16.936Z,6.33
2023-02-24T02:52:30.092Z,5.87
2023-02-24T02:55:43.210Z,4.13
2023-02-24T02:58:54.342Z,6.03
2023-02-24T03:02:11.660Z,5.17
2023-02-24T03:05:21.440Z,4.13
2023-02-24T03:08:34.724Z,6.07
2023-02-24T03:11:38.669Z,4.80
2023-02-24T03:14:51.171Z,9.67
2023-02-24T03:18:02.789Z,6.07
2023-02-24T03:21:11.955Z,4.43
2023-02-24T03:24:17.221Z,7.53
2023-02-24T03:27:30.345Z,5.97
2023-02-24T03:30:44.558Z,8.23
2023-02-24T03:34:00.577Z,7.33
2023-02-24T03:37:04.949Z,13.80
2023-02-24T03:40:15.932Z,4.13
2023-02-24T03:43:27.972Z,7.00
2023-02-24T03:46:33.175Z,5.33
2023-02-24T03:49:38.442Z,5.37
2023-02-24T03:52:48.995Z,8.40
2023-02-24T03:56:11.029Z,6.00
2023-02-24T03:59:34.374Z,10.83
2023-02-24T04:02:38.817Z,5.50
2023-02-24T04:05:50.805Z,4.50
2023-02-24T04:09:04.780Z,3.67
2023-02-24T04:12:19.928Z,7.10
2023-02-24T04:15:31.063Z,5.33
2023-02-24T04:18:35.404Z,6.37
2023-02-24T04:21:43.068Z,6.43
2023-02-24T04:24:53.405Z,5.10
2023-02-24T04:28:03.146Z,7.30
2023-02-24T04:31:17.604Z,10.33
2023-02-24T04:34:21.307Z,9.67
2023-02-24T04:37:31.889Z,6.30
2023-02-24T04:40:36.818Z,8.37
2023-02-24T04:43:41.982Z,6.97
2023-02-24T04:46:45.997Z,5.17
2023-02-24T04:49:49.623Z,9.40
2023-02-24T04:52:56.162Z,7.70
2023-02-24T04:56:09.047Z,13.23
2023-02-24T04:59:14.136Z,10.57
2023-02-24T05:02:20.005Z,5.90
2023-02-24T05:05:27.701Z,4.50
2023-02-24T05:08:32.278Z,7.30
2023-02-24T05:11:36.665Z,4.87
2023-02-24T05:14:41.633Z,7.50
2023-02-24T05:17:45.098Z,5.63
2023-02-24T05:21:09.384Z,6.80
2023-02-24T05:24:17.190Z,10.53
2023-02-24T05:27:21.410Z,11.33
2023-02-24T05:30:26.527Z,11.47
2023-02-24T05:33:29.992Z,5.50
2023-02-24T05:36:39.075Z,8.63
2023-02-24T05:39:42.639Z,7.77
2023-02-24T05:42:46.274Z,12.97
2023-02-24T05:45:51.215Z,13.83
2023-02-24T05:48:56.917Z,8.57
2023-02-24T05:52:07.557Z,9.70
2023-02-24T05:55:14.128Z,12.83
2023-02-24T05:58:17.752Z,6.30
2023-02-24T06:01:22.828Z,5.87
2023-02-24T06:04:39.542Z,4.70
2023-02-24T06:07:47.302Z,11.67
2023-02-24T06:10:51.692Z,7.30
2023-02-24T06:13:57.987Z,5.73
2023-02-24T06:17:03.846Z,10.13
2023-02-24T06:20:15.484Z,14.83
2023-02-24T06:23:19.527Z,11.40
2023-02-24T06:26:23.129Z,13.53
2023-02-24T06:29:29.668Z,5.40
2023-02-24T06:32:35.822Z,4.60
2023-02-24T06:35:39.575Z,7.77
2023-02-24T06:38:43.831Z,3.37
2023-02-24T06:41:53.004Z,6.83
2023-02-24T06:44:56.668Z,19.27
2023-02-24T06:48:01.689Z,16.23
2023-02-24T06:51:07.333Z,9.70
2023-02-24T06:54:12.725Z,8.10
2023-02-24T06:57:16.413Z,7.87
2023-02-24T07:00:25.251Z,11.57
2023-02-24T07:03:39.674Z,17.00
2023-02-24T07:06:45.838Z,9.03
2023-02-24T07:09:49.460Z,10.77
2023-02-24T07:12:54.724Z,7.37
2023-02-24T07:16:04.158Z,8.93
2023-02-24T07:19:14.156Z,5.00
2023-02-24T07:22:25.241Z,6.87
2023-02-24T07:25:34.040Z,5.60
2023-02-24T07:28:39.986Z,5.63
2023-02-24T07:31:43.697Z,7.83
2023-02-24T07:34:48.716Z,10.03
2023-02-24T07:37:53.001Z,7.83
2023-02-24T07:40:59.702Z,8.43
2023-02-24T07:44:05.959Z,5.67
2023-02-24T07:47:10.060Z,6.43
2023-02-24T07:50:18.486Z,7.53
2023-02-24T07:53:22.746Z,7.07
2023-02-24T07:56:28.454Z,13.67
2023-02-24T07:59:35.298Z,6.50
2023-02-24T08:02:39.029Z,9.47
2023-02-24T08:05:44.786Z,6.17
2023-02-24T08:09:11.148Z,8.87
2023-02-24T08:12:18.226Z,9.07
2023-02-24T08:15:34.243Z,8.53
2023-02-24T08:18:40.620Z,8.40
2023-02-24T08:21:47.539Z,8.30
2023-02-24T08:24:54.929Z,7.63
2023-02-24T08:28:08.398Z,7.50
2023-02-24T08:31:13.239Z,10.83
2023-02-24T08:34:16.972Z,8.37
2023-02-24T08:37:22.025Z,7.33
2023-02-24T08:40:43.304Z,7.37
2023-02-24T08:43:47.678Z,7.23
2023-02-24T08:46:52.494Z,6.10
2023-02-24T08:49:56.175Z,8.33
2023-02-24T08:53:02.197Z,5.03
2023-02-24T08:56:09.713Z,6.07
2023-02-24T08:59:29.254Z,5.90
2023-02-24T09:02:37.472Z,8.30
2023-02-24T09:05:41.153Z,6.33
2023-02-24T09:08:47.373Z,6.73
2023-02-24T09:11:56.380Z,5.23
2023-02-24T09:15:05.546Z,6.13
2023-02-24T09:18:14.327Z,12.23
2023-02-24T09:21:38.111Z,5.33
2023-02-24T09:24:43.674Z,7.87
2023-02-24T09:27:52.430Z,8.90
2023-02-24T09:30:59.018Z,10.70
2023-02-24T09:34:04.073Z,10.27
2023-02-24T09:37:24.905Z,8.67
2023-02-24T09:40:48.933Z,7.83
2023-02-24T09:43:59.951Z,10.60
2023-02-24T09:47:19.996Z,9.63
2023-02-24T09:51:03.125Z,10.33
2023-02-24T09:54:17.638Z,9.10
2023-02-24T09:57:37.362Z,12.47
2023-02-24T10:00:49.143Z,15.17
2023-02-24T10:04:14.963Z,13.33
2023-02-24T10:07:38.538Z,9.43
2023-02-24T10:11:00.895Z,9.73
2023-02-24T10:14:19.564Z,6.97
2023-02-24T10:17:30.699Z,11.33
2023-02-24T10:20:45.704Z,7.73
2023-02-24T10:24:05.652Z,9.13
2023-02-24T10:27:23.952Z,12.00
2023-02-24T10:30:49.172Z,11.47
2023-02-24T10:33:58.515Z,14.47
2023-02-24T10:37:07.728Z,11.80
2023-02-24T10:40:17.453Z,9.87
2023-02-24T10:43:30.348Z,10.63
2023-02-24T10:46:41.450Z,13.20
2023-02-24T10:49:57.136Z,11.40
2023-02-24T10:53:34.551Z,9.57
2023-02-24T10:56:44.676Z,12.30
2023-02-24T11:00:14.599Z,10.20
2023-02-24T11:03:35.953Z,11.47
2023-02-24T11:06:52.748Z,15.97
2023-02-24T11:10:13.726Z,10.53
2023-02-24T11:13:36.049Z,14.53
2023-02-24T11:17:04.707Z,9.53
2023-02-24T11:20:31.285Z,10.90
2023-02-24T11:23:45.153Z,12.00
2023-02-24T11:26:49.591Z,9.67
2023-02-24T11:30:23.696Z,11.43
2023-02-24T11:33:42.620Z,12.87
2023-02-24T11:37:02.790Z,12.73
2023-02-24T11:40:17.454Z,12.33
2023-02-24T11:43:27.020Z,16.43
2023-02-24T11:46:41.730Z,10.03
2023-02-24T11:49:52.673Z,9.87
2023-02-24T11:53:02.486Z,13.70
2023-02-24T11:56:15.446Z,10.07
2023-02-24T11:59:30.505Z,10.23
2023-02-24T12:02:47.162Z,13.17
2023-02-24T12:05:57.588Z,11.87
2023-02-24T12:09:09.525Z,15.87
2023-02-24T12:12:23.251Z,12.90
2023-02-24T12:15:32.154Z,13.00
2023-02-24T12:18:41.270Z,15.13
2023-02-24T12:21:53.182Z,13.73
2023-02-24T12:24:58.504Z,14.20
2023-02-24T12:28:16.819Z,8.60
2023-02-24T12:31:37.599Z,12.37
2023-02-24T12:34:54.184Z,9.63
2023-02-24T12:38:19.260Z,7.97
2023-02-24T12:41:51.507Z,10.37
2023-02-24T12:45:12.072Z,12.27
2023-02-24T12:48:47.681Z,14.83
2023-02-24T12:52:13.151Z,11.53
2023-02-24T12:55:26.757Z,10.87
2023-02-24T12:58:38.433Z,10.17
2023-02-24T13:01:52.846Z,13.83
2023-02-24T13:05:10.338Z,9.53
2023-02-24T13:08:31.603Z,8.23
2023-02-24T13:11:48.110Z,11.33
2023-02-24T13:14:53.456Z,13.13
2023-02-24T13:17:58.327Z,13.53
2023-02-24T13:21:10.140Z,10.67
2023-02-24T13:24:24.679Z,9.77
2023-02-24T13:27:31.588Z,13.53
2023-02-24T13:30:45.397Z,8.80
2023-02-24T13:33:49.522Z,7.70
2023-02-24T13:36:53.509Z,6.10
2023-02-24T13:39:57.648Z,11.07
2023-02-24T13:43:04.878Z,6.13
2023-02-24T13:46:20.370Z,7.17
2023-02-24T13:49:36.933Z,7.90
2023-02-24T13:53:24.897Z,3.80
2023-02-24T13:56:44.864Z,11.60
2023-02-24T14:00:10.100Z,13.03
2023-02-24T14:03:25.722Z,12.17
2023-02-24T14:06:29.931Z,11.27
2023-02-24T14:09:39.385Z,4.97
2023-02-24T14:12:45.382Z,8.67
2023-02-24T14:15:49.737Z,9.23
2023-02-24T14:19:01.788Z,14.90
2023-02-24T14:22:05.861Z,9.83
2023-02-24T14:25:12.571Z,12.57
2023-02-24T14:28:24.726Z,8.77
2023-02-24T14:31:30.247Z,10.23
2023-02-24T14:34:36.163Z,5.60
2023-02-24T14:37:40.711Z,12.50
2023-02-24T14:40:49.234Z,12.80
2023-02-24T14:43:53.738Z,12.63
2023-02-24T14:47:00.838Z,9.77
2023-02-24T14:50:07.266Z,10.93
2023-02-24T14:53:19.127Z,7.20
2023-02-24T14:56:29.530Z,11.03
2023-02-24T14:59:39.734Z,12.83
2023-02-24T15:02:54.040Z,6.47
2023-02-24T15:06:05.929Z,7.27
2023-02-24T15:09:21.082Z,12.80
2023-02-24T15:12:33.371Z,10.23
2023-02-24T15:15:39.985Z,3.37
2023-02-24T15:18:44.164Z,4.70
2023-02-24T15:21:49.236Z,2.70
2023-02-24T15:24:55.845Z,6.23
2023-02-24T15:28:02.463Z,6.87
2023-02-24T15:31:11.498Z,4.43
2023-02-24T15:34:21.181Z,1.37
2023-02-24T15:37:29.012Z,4.20
2023-02-24T15:40:33.024Z,6.20
2023-02-24T15:43:40.068Z,2.23
2023-02-24T15:46:43.698Z,4.70
2023-02-24T15:49:47.347Z,2.43
2023-02-24T15:52:52.458Z,3.77
2023-02-24T15:55:56.190Z,1.40
2023-02-24T15:59:02.528Z,3.33
2023-02-24T16:02:15.927Z,3.43
2023-02-24T16:05:19.990Z,3.83
2023-02-24T16:08:25.164Z,3.63
2023-02-24T16:11:35.143Z,4.13
2023-02-24T16:14:40.024Z,5.53
2023-02-24T16:17:44.585Z,3.40
2023-02-24T16:20:54.331Z,6.13
2023-02-24T16:23:59.415Z,4.30
2023-02-24T16:27:03.233Z,4.07
2023-02-24T16:30:08.818Z,6.73
2023-02-24T16:33:14.645Z,8.17
2023-02-24T16:36:20.747Z,9.23
2023-02-24T16:39:26.572Z,7.83
2023-02-24T16:42:30.068Z,11.77
2023-02-24T16:45:35.796Z,8.17
2023-02-24T16:48:41.994Z,12.50
2023-02-24T16:51:45.683Z,12.67
2023-02-24T16:54:50.496Z,21.07
2023-02-24T16:57:54.055Z,13.77
2023-02-24T17:01:02.738Z,12.10
2023-02-24T17:04:09.915Z,11.17
2023-02-24T17:07:14.631Z,19.83
2023-02-24T17:10:21.045Z,13.60
2023-02-24T17:13:24.755Z,17.37
2023-02-24T17:16:28.349Z,13.50
2023-02-24T17:19:31.994Z,16.00
2023-02-24T17:22:37.123Z,13.33
2023-02-24T17:25:42.094Z,14.50
2023-02-24T17:28:46.008Z,20.10
2023-02-24T17:31:49.702Z,21.53
2023-02-24T17:34:53.441Z,14.63
2023-02-24T17:37:56.997Z,13.13
2023-02-24T17:41:03.005Z,14.97
2023-02-24T17:44:08.833Z,24.20
2023-02-24T17:47:13.096Z,26.07
2023-02-24T17:50:17.079Z,21.00
2023-02-24T17:53:21.082Z,18.60
2023-02-24T17:56:26.325Z,21.37
2023-02-24T17:59:30.213Z,18.43
2023-02-24T18:02:34.262Z,15.97
2023-02-24T18:05:38.332Z,16.83
2023-02-24T18:08:45.452Z,16.83
2023-02-24T18:11:51.084Z,14.47
2023-02-24T18:15:07.239Z,20.90
2023-02-24T18:18:12.077Z,19.17
2023-02-24T18:21:15.675Z,21.97
2023-02-24T18:24:19.645Z,17.73
2023-02-24T18:27:24.669Z,21.93
2023-02-24T18:30:28.449Z,17.27
2023-02-24T18:33:32.128Z,16.90
2023-02-24T18:36:36.011Z,17.73
2023-02-24T18:39:39.586Z,22.90
2023-02-24T18:42:45.110Z,22.47
2023-02-24T18:45:49.015Z,16.97
2023-02-24T18:48:55.930Z,18.97
2023-02-24T18:51:59.763Z,19.60
2023-02-24T18:55:03.307Z,19.77
2023-02-24T18:58:08.297Z,30.63
2023-02-24T19:01:14.202Z,23.20
2023-02-24T19:04:17.780Z,16.73
2023-02-24T19:07:21.631Z,22.70
2023-02-24T19:10:25.534Z,23.83
2023-02-24T19:13:30.902Z,24.07
2023-02-24T19:16:36.454Z,16.20
2023-02-24T19:19:40.857Z,23.13
2023-02-24T19:22:44.874Z,28.67
2023-02-24T19:25:52.142Z,25.13
2023-02-24T19:29:00.071Z,19.70
2023-02-24T19:32:03.770Z,16.17
2023-02-24T19:35:09.227Z,30.20
2023-02-24T19:38:16.231Z,18.40
2023-02-24T19:41:20.191Z,17.00
2023-02-24T19:44:25.100Z,14.70
2023-02-24T19:47:29.085Z,14.67
2023-02-24T19:50:32.771Z,12.70
2023-02-24T19:53:36.468Z,10.60
2023-02-24T19:56:46.978Z,12.73
2023-02-24T19:59:55.052Z,13.07
2023-02-24T20:02:59.131Z,11.57
2023-02-24T20:06:03.009Z,10.80
2023-02-24T20:09:08.536Z,14.83
2023-02-24T20:12:12.192Z,13.13
2023-02-24T20:15:26.554Z,8.70
2023-02-24T20:18:31.135Z,17.73
2023-02-24T20:21:35.575Z,10.13
2023-02-24T20:24:39.391Z,11.73
2023-02-24T20:27:42.883Z,11.23
2023-02-24T20:30:48.065Z,11.43
2023-02-24T20:35:11.830Z,15.20
2023-02-24T20:38:15.821Z,16.60
2023-02-24T20:41:21.201Z,15.43
2023-02-24T20:44:24.882Z,16.20
2023-02-24T20:47:30.156Z,16.87
2023-02-24T20:50:35.729Z,16.93
2023-02-24T20:53:55.611Z,17.90
2023-02-24T20:57:00.027Z,23.93
2023-02-24T21:00:07.962Z,16.93
2023-02-24T21:03:12.890Z,21.13
2023-02-24T21:06:18.672Z,20.90
2023-02-24T21:09:22.351Z,19.67
2023-02-24T21:12:25.939Z,22.83
2023-02-24T21:15:52.283Z,22.70
2023-02-24T21:18:58.880Z,15.90
2023-02-24T21:22:02.517Z,20.23
2023-02-24T21:25:07.172Z,22.23
2023-02-24T21:28:11.430Z,17.13
2023-02-24T21:31:17.978Z,18.57
2023-02-24T21:34:23.363Z,23.10
2023-02-24T21:37:26.966Z,18.77
2023-02-24T21:40:30.469Z,27.20
2023-02-24T21:43:34.546Z,21.33
2023-02-24T21:46:38.259Z,15.63
2023-02-24T21:49:44.096Z,19.57
2023-02-24T21:52:47.838Z,20.20
2023-02-24T21:55:51.367Z,23.87
2023-02-24T21:58:59.510Z,24.97
2023-02-24T22:02:03.147Z,21.27
2023-02-24T22:05:09.013Z,22.90
2023-02-24T22:08:12.505Z,23.07
2023-02-24T22:11:18.274Z,27.83
2023-02-24T22:14:21.835Z,24.97
2023-02-24T22:17:25.465Z,23.73
2023-02-24T22:20:30.445Z,26.67
2023-02-24T22:23:33.945Z,24.97
2023-02-24T22:26:37.493Z,28.53
2023-02-24T22:29:41.210Z,29.53
2023-02-24T22:32:44.776Z,23.73
2023-02-24T22:35:49.697Z,23.13
2023-02-24T22:38:54.017Z,18.07
2023-02-24T22:41:57.615Z,15.20
2023-02-24T22:45:01.353Z,19.00
2023-02-24T22:48:05.382Z,18.40
2023-02-24T22:51:13.360Z,14.90
2023-02-24T22:54:17.252Z,19.63
2023-02-24T22:57:20.955Z,12.10
2023-02-24T23:00:26.267Z,12.33
2023-02-24T23:03:31.770Z,14.07
2023-02-24T23:06:37.862Z,10.40
2023-02-24T23:09:47.232Z,13.50
2023-02-24T23:12:50.787Z,10.97
2023-02-24T23:15:54.219Z,10.47
2023-02-24T23:19:00.983Z,4.63
2023-02-24T23:22:07.793Z,9.40
2023-02-24T23:25:13.368Z,7.87
2023-02-24T23:28:16.937Z,7.13
2023-02-24T23:31:22.239Z,8.30
2023-02-24T23:34:25.849Z,6.50
2023-02-24T23:37:30.825Z,11.53
2023-02-24T23:40:48.089Z,6.03
2023-02-24T23:43:53.400Z,9.30
2023-02-24T23:46:58.557Z,12.07
2023-02-24T23:50:02.110Z,7.10
2023-02-24T23:53:07.771Z,10.37
2023-02-24T23:56:17.292Z,7.73
2023-02-24T23:59:20.806Z,6.93
